Relevés horaires Bruxelles-National (Belgique)


Relevés horaires à Bruxelles-National - Mardi 03 Mai 2022
Heure UTC1 Température [°C] Vent [km/h] Hum. [%] Pres.4 [hPa] Visi. [Km] Nébu. [octa] Préc.5 [mm] Cond.
2m. Res. Ros. Dir.2 Vit. Moy. Raf.3
23:00 8.6 8.6 5.8 N 3.7 3.7 7.4 83 1020.2(0.6/3h) 15 3/8 -- --
22:00 10.1 10.1 6.7 N 3.7 5.6 7.4 79 1019.9(0.8/3h) 15 5/8 -- --
21:00 11.1 10.8 6.9 N 5.6 9.3 14.8 75 1019.8(1.2/3h) 15 5/8 -- --
20:00 12.1 12 7.9 N 5.6 9.3 14.8 75 1019.5(1.0/3h) 15 3/8 -- --
19:00 13.5 12.9 8.6 N 9.3 9.3 14.8 72 1019(0.5/3h) 15 5/8 -- --
18:00 14.8 14.5 8.0 NNO 9.3 11.1 16.7 64 1018.5(0.1/3h) 20 5/8 0/12h
--
17:00 15.8 15.6 6.8 N 9.3 11.1 14.8 55 1018.4(-0.3/3h) 20 5/8 -- --
16:00 16.5 16.5 5.3 N 9.3 11.1 14.8 47 1018.4(-0.6/3h) 40 3/8 -- --
15:00 17.6 17.6 5.4 N 7.4 9.3 16.7 45 1018.4(-1.2/3h) 40 3/8 -- --
14:00 17.6 17.6 4.0 NNE 7.4 9.3 16.7 40 1018.7(-1.5/3h) 40 2/8 -- --
13:00 17.6 17.6 4.5 NNE 5.6 7.4 13.0 42 1019(-1.4/3h) 40 2/8 -- --
12:00 16.9 16.9 3.6 NNE 5.6 7.4 13.0 41 1019.6(-0.8/3h) 40 2/8 0/6h
--
11:00 15.5 15.5 2.0 NNE 5.6 7.4 11.1 40 1020.2(0.0/3h) 50 2/8 -- --
10:00 14.7 14.6 2.4 NNE 7.4 7.4 11.1 43 1020.5(0.5/3h) 50 3/8 -- --
09:00 13.4 13.4 1.0 NNE 5.6 5.6 9.3 43 1020.5(0.8/3h) 50 3/8 -- --
08:00 11.4 11.2 1.4 N 5.6 5.6 7.4 50 1020.4(0.9/3h) 50 3/8 -- --
07:00 9.2 9.2 3.1 N 1.9 3.7 5.6 66 1020.1(0.7/3h) 50 3/8 -- --
06:00 7.3 7.3 3.5 N 1.9 3.7 5.6 77 1019.9(0.4/3h) 50 1/8 0/12h
--
05:00 6.0 6.0 2.5 N 1.9 3.7 5.6 78 1019.7(0.2/3h) 50 1/8 -- --
04:00 6.2 6.2 2.6 N 1.9 3.7 5.6 78 1019.4(-0.3/3h) 35 1/8 -- --
03:00 6.6 6.6 3.2 N 1.9 3.7 5.6 79 1019.5(-0.4/3h) 45 1/8 -- --
02:00 6.9 6.9 3.3 N 1.9 3.7 3.7 78 1019.5(-0.6/3h) 50 1/8 -- --
01:00 7.7 7.7 3.0 N 1.9 3.7 5.6 72 1019.7(-0.2/3h) 45 1/8 -- --
00:00 8.3 8.3 3.2 N 1.9 9.3 13.0 70 1019.8(0.2/3h) 45 1/8 0/6h
0/24h
--

1 Coordinated Universal Time. Actuellement il est 05:00 locale et 03:00 UTC.

2 Le vent souffle depuis la direction indiquée vers la direction oposée.

3 Les rafales max. sont disponible 40 min après l'heure du relevé.

4 Pour les stations d'altitude (plus de 600m) le géopotentiel du niveau le plus proche de la pression obligatoire est indiqué.

5 Les stations disposant d'un diffuseur peuvent indiquer "trace". Cela signifie que des précipitations ont touchés le sol mais que la quantité est inférieure à 0.1 mm.

Récapitulatif de la journée
Température [°C] Vent [km/h] Ensoleillement4 [h] Precipitations totale5 [mm] Pression [Hpa]
Min1 Max.2 Moy.3 Max. Min Max.
5.9 18.5 6.9 16.7 0 h 0 min 0 1018.4 1020.5

1 Température minimale relevée entre 18:00 UTC la veille et 18:00 UTC le jour donné.

2 Température maximale relevée entre 06:00 UTC le jour donné et 06:00 UTC le lendemain.

3 Vent moyen de la journée basé sur les relevés horaires.

4 Ensoleillement en heures relevé entre 06:00 UTC la veille et 06:00 UTC le jour donné.

5 Précipitations totales tombées entre 06:00 UTC la jour donné et 06:00 UTC le lendemain.

Graphiques horaires